Monroe, WI (53566)

4:28 AM CDT on August 29, 2015 (GMT -0500)
ValleyViewVet | | Change Station
CLOSE
Current Station
Personal Weather Station
Location: Monroe, WI
Elevation: 1060 ft
Nearby Weather Stations

Elev 1060 ft 42.59 °N, 89.66 °W | Updated 12 seconds ago

Heavy Rain
Heavy Rain
62.6 °F
Feels Like 62.6 °F
N
0.9
Wind Variable Wind from SE
Gusts 2.0 mph

Today
High -- | Low -- °F
--% Chance of Precip.
Yesterday
High -- | Low -- °F
Precip. -- in
6:20 AM 7:38 PM
Full, 100% visible
Pressure 29.98 in
Visibility 5.0 miles
Clouds Overcast 500 ft
Dew Point 62 °F
Humidity 97%
Rainfall 0.58 in
Snow Depth Not available.
UV 0 out of 12
Pollen 8.30 out of 12
Air Quality Not available.
Flu Activity Not available.
METAR KEFT 290915Z AUTO 16010KT 5SM +RA OVC005 17/16 A2998 RMK AO2 LTG DSNT SW P0004
Pressure 29.98 in
Visibility 5.0 miles
Clouds Overcast 500 ft
Dew Point 62 °F
Humidity 97%
Rainfall 0.58 in
Snow Depth Not available.
UV 0 out of 12
Pollen 8.30 out of 12
Air Quality Not available.
Flu Activity Not available.
METAR KEFT 290915Z AUTO 16010KT 5SM +RA OVC005 17/16 A2998 RMK AO2 LTG DSNT SW P0004

10-Day Weather Forecast

×

Almanac

Astronomy

Aug. 29, 2015 Rise Set
Actual Time
Civil Twilight
Nautical Twilight
Astronomical Twilight
Moon
Length of Visible Light
Length of Day
Tomorrow will be .
, % of the Moon is Illuminated

Today's Extremes

State Highs State Lows

Community

WunderPhotos

Upload Photos

1,850,634 photos uploaded!

WunderBlogs® & News

Nearby

Air Quality

  Air Quality AQ Index Pollutant
Not available.

Snow Depth

Station Depth Elevation

Earthquake Activity

City Distance Mag. Time & Date
Minimum magnitude displayed is 2.5.

Coastal Water Temperatures

Place Temperature

Stations

Nearby Weather Stations

Station Location Temp. Windchill Dew Point Humidity Wind Precip. Elev Updated Type